sensor_id;sensor_type;location;lat;lon;timestamp;P1;durP1;ratioP1;P2;durP2;ratioP2
64459;SDS011;50828;53.756;21.140;2023-11-22T00:02:07;53.70;;;19.20;;
64459;SDS011;50828;53.756;21.140;2023-11-22T00:07:14;44.20;;;18.10;;
64459;SDS011;50828;53.756;21.140;2023-11-22T00:12:21;37.40;;;16.20;;
64459;SDS011;50828;53.756;21.140;2023-11-22T00:17:30;31.90;;;15.00;;
64459;SDS011;50828;53.756;21.140;2023-11-22T00:22:37;44.00;;;16.60;;
64459;SDS011;50828;53.756;21.140;2023-11-22T00:27:45;62.20;;;23.50;;
64459;SDS011;50828;53.756;21.140;2023-11-22T00:32:53;69.70;;;24.60;;
64459;SDS011;50828;53.756;21.140;2023-11-22T00:38:00;53.90;;;21.20;;
64459;SDS011;50828;53.756;21.140;2023-11-22T00:43:08;28.90;;;12.70;;
64459;SDS011;50828;53.756;21.140;2023-11-22T00:48:15;18.40;;;9.80;;
64459;SDS011;50828;53.756;21.140;2023-11-22T00:53:22;24.40;;;10.70;;
64459;SDS011;50828;53.756;21.140;2023-11-22T00:58:30;25.10;;;10.50;;
64459;SDS011;50828;53.756;21.140;2023-11-22T01:03:37;30.10;;;11.40;;
64459;SDS011;50828;53.756;21.140;2023-11-22T01:08:45;24.00;;;11.00;;
64459;SDS011;50828;53.756;21.140;2023-11-22T01:13:52;31.00;;;11.50;;
64459;SDS011;50828;53.756;21.140;2023-11-22T01:19:00;31.60;;;12.10;;
64459;SDS011;50828;53.756;21.140;2023-11-22T01:24:08;27.50;;;11.00;;
64459;SDS011;50828;53.756;21.140;2023-11-22T01:29:16;23.90;;;10.60;;
64459;SDS011;50828;53.756;21.140;2023-11-22T01:34:23;20.90;;;10.10;;
64459;SDS011;50828;53.756;21.140;2023-11-22T01:39:30;24.40;;;11.70;;
64459;SDS011;50828;53.756;21.140;2023-11-22T01:44:38;23.40;;;10.20;;
64459;SDS011;50828;53.756;21.140;2023-11-22T01:49:46;29.10;;;11.40;;
64459;SDS011;50828;53.756;21.140;2023-11-22T01:54:53;24.90;;;9.70;;
64459;SDS011;50828;53.756;21.140;2023-11-22T02:00:01;19.40;;;8.70;;
64459;SDS011;50828;53.756;21.140;2023-11-22T02:05:17;26.40;;;10.20;;
64459;SDS011;50828;53.756;21.140;2023-11-22T02:10:24;24.70;;;9.30;;
64459;SDS011;50828;53.756;21.140;2023-11-22T02:15:33;22.40;;;10.10;;
64459;SDS011;50828;53.756;21.140;2023-11-22T02:20:40;22.00;;;8.50;;
64459;SDS011;50828;53.756;21.140;2023-11-22T02:25:48;19.70;;;9.40;;
64459;SDS011;50828;53.756;21.140;2023-11-22T02:30:55;17.70;;;8.40;;
64459;SDS011;50828;53.756;21.140;2023-11-22T02:36:03;23.30;;;9.30;;
64459;SDS011;50828;53.756;21.140;2023-11-22T02:41:11;20.00;;;10.10;;
64459;SDS011;50828;53.756;21.140;2023-11-22T02:46:19;21.10;;;9.90;;
64459;SDS011;50828;53.756;21.140;2023-11-22T02:51:27;17.90;;;9.40;;
64459;SDS011;50828;53.756;21.140;2023-11-22T02:56:34;22.60;;;9.40;;
64459;SDS011;50828;53.756;21.140;2023-11-22T03:01:42;31.20;;;11.00;;
64459;SDS011;50828;53.756;21.140;2023-11-22T03:06:49;24.30;;;9.90;;
64459;SDS011;50828;53.756;21.140;2023-11-22T03:11:57;21.90;;;9.70;;
64459;SDS011;50828;53.756;21.140;2023-11-22T03:17:06;22.40;;;9.30;;
64459;SDS011;50828;53.756;21.140;2023-11-22T03:22:14;19.30;;;9.00;;
64459;SDS011;50828;53.756;21.140;2023-11-22T03:27:21;17.80;;;8.60;;
64459;SDS011;50828;53.756;21.140;2023-11-22T03:32:29;21.50;;;9.20;;
64459;SDS011;50828;53.756;21.140;2023-11-22T03:37:40;17.20;;;8.60;;
64459;SDS011;50828;53.756;21.140;2023-11-22T03:42:48;19.40;;;9.30;;
64459;SDS011;50828;53.756;21.140;2023-11-22T03:47:55;18.30;;;8.10;;
64459;SDS011;50828;53.756;21.140;2023-11-22T03:53:03;21.30;;;9.50;;
64459;SDS011;50828;53.756;21.140;2023-11-22T03:58:10;20.20;;;9.50;;
64459;SDS011;50828;53.756;21.140;2023-11-22T04:03:17;23.20;;;9.80;;
64459;SDS011;50828;53.756;21.140;2023-11-22T04:08:25;30.80;;;12.20;;
64459;SDS011;50828;53.756;21.140;2023-11-22T04:13:32;28.50;;;11.60;;
64459;SDS011;50828;53.756;21.140;2023-11-22T04:18:40;26.70;;;11.60;;
64459;SDS011;50828;53.756;21.140;2023-11-22T04:23:48;20.10;;;9.40;;
64459;SDS011;50828;53.756;21.140;2023-11-22T04:28:56;24.70;;;11.80;;
64459;SDS011;50828;53.756;21.140;2023-11-22T04:34:04;27.00;;;10.30;;
64459;SDS011;50828;53.756;21.140;2023-11-22T04:39:11;23.30;;;8.50;;
64459;SDS011;50828;53.756;21.140;2023-11-22T04:44:19;16.00;;;7.10;;
64459;SDS011;50828;53.756;21.140;2023-11-22T04:49:26;16.30;;;7.60;;
64459;SDS011;50828;53.756;21.140;2023-11-22T04:54:36;15.80;;;8.00;;
64459;SDS011;50828;53.756;21.140;2023-11-22T04:59:43;17.00;;;8.20;;
64459;SDS011;50828;53.756;21.140;2023-11-22T05:04:51;15.50;;;8.20;;
64459;SDS011;50828;53.756;21.140;2023-11-22T05:09:58;15.80;;;8.20;;
64459;SDS011;50828;53.756;21.140;2023-11-22T05:15:07;20.90;;;8.30;;
64459;SDS011;50828;53.756;21.140;2023-11-22T05:20:15;20.90;;;9.00;;
64459;SDS011;50828;53.756;21.140;2023-11-22T05:25:22;17.50;;;7.70;;
64459;SDS011;50828;53.756;21.140;2023-11-22T05:30:30;19.20;;;7.90;;
64459;SDS011;50828;53.756;21.140;2023-11-22T05:35:37;20.00;;;8.60;;
64459;SDS011;50828;53.756;21.140;2023-11-22T05:40:45;17.80;;;8.00;;
64459;SDS011;50828;53.756;21.140;2023-11-22T05:45:52;19.00;;;8.20;;
64459;SDS011;50828;53.756;21.140;2023-11-22T05:51:00;16.70;;;7.40;;
64459;SDS011;50828;53.756;21.140;2023-11-22T05:56:08;18.00;;;8.00;;
64459;SDS011;50828;53.756;21.140;2023-11-22T06:01:16;17.80;;;7.60;;
64459;SDS011;50828;53.756;21.140;2023-11-22T06:06:24;16.20;;;7.20;;
64459;SDS011;50828;53.756;21.140;2023-11-22T06:11:31;15.90;;;6.90;;
64459;SDS011;50828;53.756;21.140;2023-11-22T06:16:39;18.60;;;7.90;;
64459;SDS011;50828;53.756;21.140;2023-11-22T06:21:46;16.90;;;7.90;;
64459;SDS011;50828;53.756;21.140;2023-11-22T06:26:53;14.20;;;6.80;;
64459;SDS011;50828;53.756;21.140;2023-11-22T06:32:00;13.40;;;7.20;;
64459;SDS011;50828;53.756;21.140;2023-11-22T06:37:10;18.70;;;8.10;;
64459;SDS011;50828;53.756;21.140;2023-11-22T06:42:17;15.60;;;7.30;;
64459;SDS011;50828;53.756;21.140;2023-11-22T06:47:25;17.10;;;7.60;;
64459;SDS011;50828;53.756;21.140;2023-11-22T06:52:33;14.90;;;7.10;;
64459;SDS011;50828;53.756;21.140;2023-11-22T06:57:41;16.60;;;7.50;;
64459;SDS011;50828;53.756;21.140;2023-11-22T07:02:49;18.20;;;7.50;;
64459;SDS011;50828;53.756;21.140;2023-11-22T07:07:56;18.00;;;7.70;;
64459;SDS011;50828;53.756;21.140;2023-11-22T07:13:03;21.50;;;8.40;;
64459;SDS011;50828;53.756;21.140;2023-11-22T07:18:11;19.60;;;9.20;;
64459;SDS011;50828;53.756;21.140;2023-11-22T07:23:20;23.70;;;7.60;;
64459;SDS011;50828;53.756;21.140;2023-11-22T07:28:31;20.70;;;7.80;;
64459;SDS011;50828;53.756;21.140;2023-11-22T07:33:39;17.30;;;8.30;;
64459;SDS011;50828;53.756;21.140;2023-11-22T07:38:46;22.40;;;8.70;;
64459;SDS011;50828;53.756;21.140;2023-11-22T07:43:57;16.50;;;7.50;;
64459;SDS011;50828;53.756;21.140;2023-11-22T07:49:04;17.20;;;7.70;;
64459;SDS011;50828;53.756;21.140;2023-11-22T07:54:13;16.00;;;7.50;;
64459;SDS011;50828;53.756;21.140;2023-11-22T07:59:20;20.50;;;8.90;;
64459;SDS011;50828;53.756;21.140;2023-11-22T08:04:28;22.60;;;9.20;;
64459;SDS011;50828;53.756;21.140;2023-11-22T08:09:36;23.20;;;8.60;;
64459;SDS011;50828;53.756;21.140;2023-11-22T08:14:44;19.50;;;8.30;;
64459;SDS011;50828;53.756;21.140;2023-11-22T08:19:52;17.50;;;8.40;;
64459;SDS011;50828;53.756;21.140;2023-11-22T08:24:59;19.60;;;7.60;;
64459;SDS011;50828;53.756;21.140;2023-11-22T08:30:08;17.20;;;7.00;;
64459;SDS011;50828;53.756;21.140;2023-11-22T08:35:19;15.50;;;6.60;;
64459;SDS011;50828;53.756;21.140;2023-11-22T08:40:27;18.50;;;7.50;;
64459;SDS011;50828;53.756;21.140;2023-11-22T08:45:35;14.90;;;7.20;;
64459;SDS011;50828;53.756;21.140;2023-11-22T08:50:42;12.40;;;6.60;;
64459;SDS011;50828;53.756;21.140;2023-11-22T08:55:51;16.20;;;7.20;;
64459;SDS011;50828;53.756;21.140;2023-11-22T09:00:59;13.60;;;6.10;;
64459;SDS011;50828;53.756;21.140;2023-11-22T09:06:08;12.30;;;5.50;;
64459;SDS011;50828;53.756;21.140;2023-11-22T09:11:17;13.10;;;5.30;;
64459;SDS011;50828;53.756;21.140;2023-11-22T09:16:26;15.40;;;6.30;;
64459;SDS011;50828;53.756;21.140;2023-11-22T09:21:33;19.80;;;6.70;;
64459;SDS011;50828;53.756;21.140;2023-11-22T09:26:41;14.90;;;6.70;;
64459;SDS011;50828;53.756;21.140;2023-11-22T09:31:48;14.90;;;6.20;;
64459;SDS011;50828;53.756;21.140;2023-11-22T09:36:56;14.30;;;7.40;;
64459;SDS011;50828;53.756;21.140;2023-11-22T09:42:03;14.20;;;5.80;;
64459;SDS011;50828;53.756;21.140;2023-11-22T09:47:11;12.80;;;5.50;;
64459;SDS011;50828;53.756;21.140;2023-11-22T09:52:22;9.80;;;5.70;;
64459;SDS011;50828;53.756;21.140;2023-11-22T09:57:33;12.00;;;5.60;;
64459;SDS011;50828;53.756;21.140;2023-11-22T10:02:44;11.60;;;5.40;;
64459;SDS011;50828;53.756;21.140;2023-11-22T10:07:52;13.10;;;5.80;;
64459;SDS011;50828;53.756;21.140;2023-11-22T10:13:00;11.40;;;5.50;;
64459;SDS011;50828;53.756;21.140;2023-11-22T10:18:07;14.90;;;5.80;;
64459;SDS011;50828;53.756;21.140;2023-11-22T10:23:15;14.20;;;5.60;;
64459;SDS011;50828;53.756;21.140;2023-11-22T10:28:28;10.80;;;5.20;;
64459;SDS011;50828;53.756;21.140;2023-11-22T10:38:47;12.30;;;5.40;;
64459;SDS011;50828;53.756;21.140;2023-11-22T10:43:55;10.30;;;4.80;;
64459;SDS011;50828;53.756;21.140;2023-11-22T10:49:04;10.20;;;4.60;;
64459;SDS011;50828;53.756;21.140;2023-11-22T10:54:15;10.30;;;4.20;;
64459;SDS011;50828;53.756;21.140;2023-11-22T10:59:25;9.80;;;4.20;;
64459;SDS011;50828;53.756;21.140;2023-11-22T11:04:38;8.50;;;4.20;;
64459;SDS011;50828;53.756;21.140;2023-11-22T11:09:50;7.00;;;3.80;;
64459;SDS011;50828;53.756;21.140;2023-11-22T11:15:11;7.30;;;3.30;;
64459;SDS011;50828;53.756;21.140;2023-11-22T11:20:21;7.00;;;3.10;;
64459;SDS011;50828;53.756;21.140;2023-11-22T11:25:30;6.70;;;3.40;;
64459;SDS011;50828;53.756;21.140;2023-11-22T11:30:42;7.50;;;3.00;;
64459;SDS011;50828;53.756;21.140;2023-11-22T11:35:52;6.00;;;3.10;;
64459;SDS011;50828;53.756;21.140;2023-11-22T11:41:08;4.80;;;1.90;;
64459;SDS011;50828;53.756;21.140;2023-11-22T11:46:16;6.10;;;3.00;;
64459;SDS011;50828;53.756;21.140;2023-11-22T11:51:27;7.80;;;3.40;;
64459;SDS011;50828;53.756;21.140;2023-11-22T11:56:34;9.30;;;3.10;;
64459;SDS011;50828;53.756;21.140;2023-11-22T12:01:42;6.70;;;3.10;;
64459;SDS011;50828;53.756;21.140;2023-11-22T12:06:49;8.00;;;3.20;;
64459;SDS011;50828;53.756;21.140;2023-11-22T12:11:59;4.80;;;2.10;;
64459;SDS011;50828;53.756;21.140;2023-11-22T12:17:07;7.40;;;3.00;;
64459;SDS011;50828;53.756;21.140;2023-11-22T12:22:15;8.50;;;3.20;;
64459;SDS011;50828;53.756;21.140;2023-11-22T12:27:23;5.60;;;2.70;;
64459;SDS011;50828;53.756;21.140;2023-11-22T12:32:33;4.90;;;2.10;;
64459;SDS011;50828;53.756;21.140;2023-11-22T12:37:43;4.60;;;2.10;;
64459;SDS011;50828;53.756;21.140;2023-11-22T12:42:51;9.10;;;3.50;;
64459;SDS011;50828;53.756;21.140;2023-11-22T12:47:59;7.30;;;3.50;;
64459;SDS011;50828;53.756;21.140;2023-11-22T12:53:25;8.70;;;4.10;;
64459;SDS011;50828;53.756;21.140;2023-11-22T12:58:33;8.90;;;3.30;;
64459;SDS011;50828;53.756;21.140;2023-11-22T13:03:41;7.10;;;3.50;;
64459;SDS011;50828;53.756;21.140;2023-11-22T13:08:48;10.20;;;3.70;;
64459;SDS011;50828;53.756;21.140;2023-11-22T13:13:56;10.80;;;3.90;;
64459;SDS011;50828;53.756;21.140;2023-11-22T13:19:03;7.40;;;3.80;;
64459;SDS011;50828;53.756;21.140;2023-11-22T13:24:13;9.40;;;4.50;;
64459;SDS011;50828;53.756;21.140;2023-11-22T13:29:22;9.50;;;4.20;;
64459;SDS011;50828;53.756;21.140;2023-11-22T13:34:29;10.50;;;4.60;;
64459;SDS011;50828;53.756;21.140;2023-11-22T13:39:37;11.00;;;4.80;;
64459;SDS011;50828;53.756;21.140;2023-11-22T13:44:44;10.80;;;4.50;;
64459;SDS011;50828;53.756;21.140;2023-11-22T13:49:52;9.40;;;4.70;;
64459;SDS011;50828;53.756;21.140;2023-11-22T13:55:00;8.10;;;3.40;;
64459;SDS011;50828;53.756;21.140;2023-11-22T14:00:12;8.20;;;4.30;;
64459;SDS011;50828;53.756;21.140;2023-11-22T14:05:22;10.30;;;4.20;;
64459;SDS011;50828;53.756;21.140;2023-11-22T14:10:30;8.50;;;3.70;;
64459;SDS011;50828;53.756;21.140;2023-11-22T14:15:37;5.80;;;3.00;;
64459;SDS011;50828;53.756;21.140;2023-11-22T14:20:45;8.30;;;3.60;;
64459;SDS011;50828;53.756;21.140;2023-11-22T14:25:52;7.80;;;3.80;;
64459;SDS011;50828;53.756;21.140;2023-11-22T14:31:00;7.10;;;3.30;;
64459;SDS011;50828;53.756;21.140;2023-11-22T14:36:09;9.20;;;4.30;;
64459;SDS011;50828;53.756;21.140;2023-11-22T14:41:16;8.80;;;3.90;;
64459;SDS011;50828;53.756;21.140;2023-11-22T14:46:23;11.50;;;5.10;;
64459;SDS011;50828;53.756;21.140;2023-11-22T14:51:31;13.40;;;5.80;;
64459;SDS011;50828;53.756;21.140;2023-11-22T14:56:38;17.10;;;6.60;;
64459;SDS011;50828;53.756;21.140;2023-11-22T15:01:46;14.40;;;6.60;;
64459;SDS011;50828;53.756;21.140;2023-11-22T15:06:53;21.30;;;7.70;;
64459;SDS011;50828;53.756;21.140;2023-11-22T15:12:00;24.20;;;8.30;;
64459;SDS011;50828;53.756;21.140;2023-11-22T15:17:08;19.00;;;7.70;;
64459;SDS011;50828;53.756;21.140;2023-11-22T15:22:18;18.00;;;6.80;;
64459;SDS011;50828;53.756;21.140;2023-11-22T15:27:25;17.00;;;6.90;;
64459;SDS011;50828;53.756;21.140;2023-11-22T15:32:32;17.50;;;7.50;;
64459;SDS011;50828;53.756;21.140;2023-11-22T15:37:40;19.10;;;7.20;;
64459;SDS011;50828;53.756;21.140;2023-11-22T15:42:47;17.10;;;7.00;;
64459;SDS011;50828;53.756;21.140;2023-11-22T15:47:54;20.00;;;7.80;;
64459;SDS011;50828;53.756;21.140;2023-11-22T15:53:02;20.90;;;8.00;;
64459;SDS011;50828;53.756;21.140;2023-11-22T15:58:13;16.20;;;7.10;;
64459;SDS011;50828;53.756;21.140;2023-11-22T16:03:20;17.30;;;6.90;;
64459;SDS011;50828;53.756;21.140;2023-11-22T16:08:27;19.20;;;7.90;;
64459;SDS011;50828;53.756;21.140;2023-11-22T16:13:35;13.00;;;5.40;;
64459;SDS011;50828;53.756;21.140;2023-11-22T16:18:42;15.90;;;6.60;;
64459;SDS011;50828;53.756;21.140;2023-11-22T16:23:50;19.00;;;8.00;;
64459;SDS011;50828;53.756;21.140;2023-11-22T16:28:57;16.00;;;6.20;;
64459;SDS011;50828;53.756;21.140;2023-11-22T16:34:05;16.10;;;6.50;;
64459;SDS011;50828;53.756;21.140;2023-11-22T16:39:13;10.60;;;5.00;;
64459;SDS011;50828;53.756;21.140;2023-11-22T16:44:32;14.60;;;6.60;;
64459;SDS011;50828;53.756;21.140;2023-11-22T16:49:45;17.40;;;8.00;;
64459;SDS011;50828;53.756;21.140;2023-11-22T16:54:53;18.90;;;7.70;;
64459;SDS011;50828;53.756;21.140;2023-11-22T17:00:00;19.80;;;8.20;;
64459;SDS011;50828;53.756;21.140;2023-11-22T17:05:13;20.20;;;8.00;;
64459;SDS011;50828;53.756;21.140;2023-11-22T17:10:21;17.80;;;8.00;;
64459;SDS011;50828;53.756;21.140;2023-11-22T17:15:48;19.10;;;7.70;;
64459;SDS011;50828;53.756;21.140;2023-11-22T17:20:56;22.90;;;8.70;;
64459;SDS011;50828;53.756;21.140;2023-11-22T17:26:05;15.80;;;6.10;;
64459;SDS011;50828;53.756;21.140;2023-11-22T17:31:13;16.70;;;7.80;;
64459;SDS011;50828;53.756;21.140;2023-11-22T17:36:21;18.60;;;8.00;;
64459;SDS011;50828;53.756;21.140;2023-11-22T17:41:29;20.30;;;8.30;;
64459;SDS011;50828;53.756;21.140;2023-11-22T17:46:38;20.80;;;9.00;;
64459;SDS011;50828;53.756;21.140;2023-11-22T17:51:47;23.10;;;8.40;;
64459;SDS011;50828;53.756;21.140;2023-11-22T17:56:58;19.20;;;8.50;;
64459;SDS011;50828;53.756;21.140;2023-11-22T18:02:07;21.60;;;8.60;;
64459;SDS011;50828;53.756;21.140;2023-11-22T18:07:14;20.00;;;8.60;;
64459;SDS011;50828;53.756;21.140;2023-11-22T18:12:25;22.90;;;9.30;;
64459;SDS011;50828;53.756;21.140;2023-11-22T18:17:32;20.70;;;8.10;;
64459;SDS011;50828;53.756;21.140;2023-11-22T18:22:39;24.20;;;11.30;;
64459;SDS011;50828;53.756;21.140;2023-11-22T18:27:48;19.40;;;7.60;;
64459;SDS011;50828;53.756;21.140;2023-11-22T18:32:55;22.50;;;9.50;;
64459;SDS011;50828;53.756;21.140;2023-11-22T18:38:03;22.40;;;9.30;;
64459;SDS011;50828;53.756;21.140;2023-11-22T18:43:11;23.90;;;9.40;;
64459;SDS011;50828;53.756;21.140;2023-11-22T18:48:18;23.60;;;9.10;;
64459;SDS011;50828;53.756;21.140;2023-11-22T18:53:25;22.00;;;9.00;;
64459;SDS011;50828;53.756;21.140;2023-11-22T18:58:34;18.90;;;8.90;;
64459;SDS011;50828;53.756;21.140;2023-11-22T19:03:41;19.50;;;8.70;;
64459;SDS011;50828;53.756;21.140;2023-11-22T19:08:49;19.60;;;9.70;;
64459;SDS011;50828;53.756;21.140;2023-11-22T19:13:56;19.70;;;9.50;;
64459;SDS011;50828;53.756;21.140;2023-11-22T19:19:04;21.80;;;9.90;;
64459;SDS011;50828;53.756;21.140;2023-11-22T19:24:11;20.30;;;9.60;;
64459;SDS011;50828;53.756;21.140;2023-11-22T19:29:18;19.30;;;8.70;;
64459;SDS011;50828;53.756;21.140;2023-11-22T19:34:26;21.70;;;9.10;;
64459;SDS011;50828;53.756;21.140;2023-11-22T19:39:34;20.50;;;9.30;;
64459;SDS011;50828;53.756;21.140;2023-11-22T19:44:41;19.80;;;9.40;;
64459;SDS011;50828;53.756;21.140;2023-11-22T19:49:49;19.00;;;9.30;;
64459;SDS011;50828;53.756;21.140;2023-11-22T19:54:56;20.30;;;9.90;;
64459;SDS011;50828;53.756;21.140;2023-11-22T20:00:07;22.20;;;10.20;;
64459;SDS011;50828;53.756;21.140;2023-11-22T20:05:17;25.10;;;9.80;;
64459;SDS011;50828;53.756;21.140;2023-11-22T20:10:24;21.00;;;9.90;;
64459;SDS011;50828;53.756;21.140;2023-11-22T20:15:32;23.20;;;9.80;;
64459;SDS011;50828;53.756;21.140;2023-11-22T20:20:39;25.60;;;9.40;;
64459;SDS011;50828;53.756;21.140;2023-11-22T20:25:47;25.30;;;10.80;;
64459;SDS011;50828;53.756;21.140;2023-11-22T20:30:54;25.40;;;10.70;;
64459;SDS011;50828;53.756;21.140;2023-11-22T20:36:01;22.40;;;9.40;;
64459;SDS011;50828;53.756;21.140;2023-11-22T20:41:09;21.80;;;9.60;;
64459;SDS011;50828;53.756;21.140;2023-11-22T20:46:20;20.30;;;9.10;;
64459;SDS011;50828;53.756;21.140;2023-11-22T20:51:28;21.90;;;9.30;;
64459;SDS011;50828;53.756;21.140;2023-11-22T20:56:35;21.10;;;9.80;;
64459;SDS011;50828;53.756;21.140;2023-11-22T21:01:43;25.90;;;9.80;;
64459;SDS011;50828;53.756;21.140;2023-11-22T21:06:51;22.70;;;9.70;;
64459;SDS011;50828;53.756;21.140;2023-11-22T21:11:58;27.30;;;8.60;;
64459;SDS011;50828;53.756;21.140;2023-11-22T21:17:06;22.40;;;8.40;;
64459;SDS011;50828;53.756;21.140;2023-11-22T21:22:14;21.00;;;8.80;;
64459;SDS011;50828;53.756;21.140;2023-11-22T21:27:22;27.90;;;9.30;;
64459;SDS011;50828;53.756;21.140;2023-11-22T21:32:30;22.70;;;9.30;;
64459;SDS011;50828;53.756;21.140;2023-11-22T21:37:37;25.20;;;10.80;;
64459;SDS011;50828;53.756;21.140;2023-11-22T21:42:44;19.00;;;8.80;;
64459;SDS011;50828;53.756;21.140;2023-11-22T21:47:52;24.00;;;9.30;;
64459;SDS011;50828;53.756;21.140;2023-11-22T21:52:59;21.10;;;9.40;;
64459;SDS011;50828;53.756;21.140;2023-11-22T21:58:06;20.40;;;8.80;;
64459;SDS011;50828;53.756;21.140;2023-11-22T22:03:14;21.10;;;8.80;;
64459;SDS011;50828;53.756;21.140;2023-11-22T22:08:22;21.00;;;8.50;;
64459;SDS011;50828;53.756;21.140;2023-11-22T22:13:29;19.40;;;8.20;;
64459;SDS011;50828;53.756;21.140;2023-11-22T22:18:37;17.50;;;7.20;;
64459;SDS011;50828;53.756;21.140;2023-11-22T22:23:44;17.90;;;7.50;;
64459;SDS011;50828;53.756;21.140;2023-11-22T22:28:52;18.70;;;7.30;;
64459;SDS011;50828;53.756;21.140;2023-11-22T22:33:59;17.70;;;8.30;;
64459;SDS011;50828;53.756;21.140;2023-11-22T22:39:06;21.00;;;7.40;;
64459;SDS011;50828;53.756;21.140;2023-11-22T22:44:14;19.80;;;7.70;;
64459;SDS011;50828;53.756;21.140;2023-11-22T22:49:21;20.90;;;8.10;;
64459;SDS011;50828;53.756;21.140;2023-11-22T22:54:29;21.40;;;8.10;;
64459;SDS011;50828;53.756;21.140;2023-11-22T22:59:37;21.20;;;9.50;;
64459;SDS011;50828;53.756;21.140;2023-11-22T23:04:44;20.90;;;9.50;;
64459;SDS011;50828;53.756;21.140;2023-11-22T23:09:53;25.50;;;9.10;;
64459;SDS011;50828;53.756;21.140;2023-11-22T23:15:00;23.70;;;9.90;;
64459;SDS011;50828;53.756;21.140;2023-11-22T23:20:09;20.60;;;9.10;;
64459;SDS011;50828;53.756;21.140;2023-11-22T23:25:19;31.20;;;9.60;;
64459;SDS011;50828;53.756;21.140;2023-11-22T23:30:27;23.70;;;9.00;;
64459;SDS011;50828;53.756;21.140;2023-11-22T23:35:35;20.50;;;9.10;;
64459;SDS011;50828;53.756;21.140;2023-11-22T23:40:42;21.60;;;9.10;;
64459;SDS011;50828;53.756;21.140;2023-11-22T23:45:50;17.70;;;8.50;;
64459;SDS011;50828;53.756;21.140;2023-11-22T23:50:58;24.90;;;9.50;;
64459;SDS011;50828;53.756;21.140;2023-11-22T23:56:06;18.90;;;8.80;;
